sensor_id;sensor_type;location;lat;lon;timestamp;temperature;humidity
74376;HTU21D;62812;55.188;61.302;2023-01-26T00:00:47;-6.14;70.15
74376;HTU21D;62812;55.188;61.302;2023-01-26T00:03:14;-6.11;70.00
74376;HTU21D;62812;55.188;61.302;2023-01-26T00:05:40;-6.13;69.86
74376;HTU21D;62812;55.188;61.302;2023-01-26T00:08:10;-6.15;69.84
74376;HTU21D;62812;55.188;61.302;2023-01-26T00:10:38;-6.15;69.45
74376;HTU21D;62812;55.188;61.302;2023-01-26T00:13:07;-6.17;69.29
74376;HTU21D;62812;55.188;61.302;2023-01-26T00:15:34;-6.19;69.06
74376;HTU21D;62812;55.188;61.302;2023-01-26T00:18:01;-6.18;68.82
74376;HTU21D;62812;55.188;61.302;2023-01-26T00:20:29;-6.21;68.81
74376;HTU21D;62812;55.188;61.302;2023-01-26T00:22:56;-6.26;68.58
74376;HTU21D;62812;55.188;61.302;2023-01-26T00:25:22;-6.33;68.63
74376;HTU21D;62812;55.188;61.302;2023-01-26T00:27:49;-6.41;68.45
74376;HTU21D;62812;55.188;61.302;2023-01-26T00:30:17;-6.45;67.94
74376;HTU21D;62812;55.188;61.302;2023-01-26T00:32:43;-6.38;67.04
74376;HTU21D;62812;55.188;61.302;2023-01-26T00:35:10;-6.34;66.62
74376;HTU21D;62812;55.188;61.302;2023-01-26T00:37:36;-6.31;66.64
74376;HTU21D;62812;55.188;61.302;2023-01-26T00:40:03;-6.36;66.29
74376;HTU21D;62812;55.188;61.302;2023-01-26T00:42:30;-6.42;66.43
74376;HTU21D;62812;55.188;61.302;2023-01-26T00:44:56;-6.49;66.33
74376;HTU21D;62812;55.188;61.302;2023-01-26T00:47:24;-6.59;66.77
74376;HTU21D;62812;55.188;61.302;2023-01-26T00:49:50;-6.66;66.91
74376;HTU21D;62812;55.188;61.302;2023-01-26T00:52:17;-6.66;66.68
74376;HTU21D;62812;55.188;61.302;2023-01-26T00:54:43;-6.72;66.90
74376;HTU21D;62812;55.188;61.302;2023-01-26T00:57:10;-6.75;66.74
74376;HTU21D;62812;55.188;61.302;2023-01-26T00:59:36;-6.76;66.13
74376;HTU21D;62812;55.188;61.302;2023-01-26T01:02:02;-6.78;65.92
74376;HTU21D;62812;55.188;61.302;2023-01-26T01:04:30;-6.81;66.08
74376;HTU21D;62812;55.188;61.302;2023-01-26T01:06:57;-6.85;65.75
74376;HTU21D;62812;55.188;61.302;2023-01-26T01:09:24;-6.87;65.52
74376;HTU21D;62812;55.188;61.302;2023-01-26T01:11:50;-6.88;65.27
74376;HTU21D;62812;55.188;61.302;2023-01-26T01:14:17;-6.88;65.20
74376;HTU21D;62812;55.188;61.302;2023-01-26T01:16:43;-6.88;65.21
74376;HTU21D;62812;55.188;61.302;2023-01-26T01:19:12;-6.91;64.95
74376;HTU21D;62812;55.188;61.302;2023-01-26T01:21:40;-6.93;64.90
74376;HTU21D;62812;55.188;61.302;2023-01-26T01:24:07;-6.95;64.85
74376;HTU21D;62812;55.188;61.302;2023-01-26T01:26:34;-6.95;65.16
74376;HTU21D;62812;55.188;61.302;2023-01-26T01:29:01;-6.98;65.02
74376;HTU21D;62812;55.188;61.302;2023-01-26T01:31:27;-7.03;65.29
74376;HTU21D;62812;55.188;61.302;2023-01-26T01:33:54;-7.03;65.27
74376;HTU21D;62812;55.188;61.302;2023-01-26T01:36:20;-7.02;65.21
74376;HTU21D;62812;55.188;61.302;2023-01-26T01:38:49;-7.02;65.01
74376;HTU21D;62812;55.188;61.302;2023-01-26T01:41:17;-6.98;65.04
74376;HTU21D;62812;55.188;61.302;2023-01-26T01:43:44;-7.00;64.84
74376;HTU21D;62812;55.188;61.302;2023-01-26T01:46:22;-6.98;64.66
74376;HTU21D;62812;55.188;61.302;2023-01-26T01:48:54;-7.01;64.80
74376;HTU21D;62812;55.188;61.302;2023-01-26T01:51:28;-7.02;64.79
74376;HTU21D;62812;55.188;61.302;2023-01-26T01:53:59;-7.05;64.91
74376;HTU21D;62812;55.188;61.302;2023-01-26T01:56:28;-7.05;64.86
74376;HTU21D;62812;55.188;61.302;2023-01-26T01:58:57;-7.04;64.67
74376;HTU21D;62812;55.188;61.302;2023-01-26T02:01:25;-7.07;64.78
74376;HTU21D;62812;55.188;61.302;2023-01-26T02:03:54;-7.09;64.94
74376;HTU21D;62812;55.188;61.302;2023-01-26T02:06:27;-7.11;65.05
74376;HTU21D;62812;55.188;61.302;2023-01-26T02:08:56;-7.18;65.04
74376;HTU21D;62812;55.188;61.302;2023-01-26T02:11:27;-7.22;65.20
74376;HTU21D;62812;55.188;61.302;2023-01-26T02:13:56;-7.25;65.45
74376;HTU21D;62812;55.188;61.302;2023-01-26T02:16:23;-7.30;65.80
74376;HTU21D;62812;55.188;61.302;2023-01-26T02:18:53;-7.29;65.88
74376;HTU21D;62812;55.188;61.302;2023-01-26T02:21:23;-7.30;65.89
74376;HTU21D;62812;55.188;61.302;2023-01-26T02:24:06;-7.33;66.02
74376;HTU21D;62812;55.188;61.302;2023-01-26T02:26:36;-7.38;66.04
74376;HTU21D;62812;55.188;61.302;2023-01-26T02:29:06;-7.40;66.37
74376;HTU21D;62812;55.188;61.302;2023-01-26T02:31:34;-7.39;66.14
74376;HTU21D;62812;55.188;61.302;2023-01-26T02:34:01;-7.38;66.10
74376;HTU21D;62812;55.188;61.302;2023-01-26T02:36:30;-7.45;66.69
74376;HTU21D;62812;55.188;61.302;2023-01-26T02:41:49;-7.49;66.43
74376;HTU21D;62812;55.188;61.302;2023-01-26T02:44:35;-7.53;66.98
74376;HTU21D;62812;55.188;61.302;2023-01-26T02:47:09;-7.59;67.12
74376;HTU21D;62812;55.188;61.302;2023-01-26T02:49:36;-7.59;66.99
74376;HTU21D;62812;55.188;61.302;2023-01-26T02:52:12;-7.56;67.22
74376;HTU21D;62812;55.188;61.302;2023-01-26T02:54:38;-7.55;67.21
74376;HTU21D;62812;55.188;61.302;2023-01-26T02:57:25;-7.53;67.09
74376;HTU21D;62812;55.188;61.302;2023-01-26T02:59:51;-7.56;67.19
74376;HTU21D;62812;55.188;61.302;2023-01-26T03:02:18;-7.59;67.26
74376;HTU21D;62812;55.188;61.302;2023-01-26T03:04:45;-7.63;67.43
74376;HTU21D;62812;55.188;61.302;2023-01-26T03:07:11;-7.65;67.26
74376;HTU21D;62812;55.188;61.302;2023-01-26T03:09:37;-7.67;67.27
74376;HTU21D;62812;55.188;61.302;2023-01-26T03:12:04;-7.64;67.51
74376;HTU21D;62812;55.188;61.302;2023-01-26T03:14:32;-7.62;67.11
74376;HTU21D;62812;55.188;61.302;2023-01-26T03:16:58;-7.60;67.07
74376;HTU21D;62812;55.188;61.302;2023-01-26T03:19:27;-7.64;67.02
74376;HTU21D;62812;55.188;61.302;2023-01-26T03:22:12;-7.72;67.25
74376;HTU21D;62812;55.188;61.302;2023-01-26T03:24:57;-7.77;67.65
74376;HTU21D;62812;55.188;61.302;2023-01-26T03:27:44;-7.75;67.94
74376;HTU21D;62812;55.188;61.302;2023-01-26T03:30:13;-7.70;67.39
74376;HTU21D;62812;55.188;61.302;2023-01-26T03:32:43;-7.77;67.41
74376;HTU21D;62812;55.188;61.302;2023-01-26T03:35:10;-7.76;67.46
74376;HTU21D;62812;55.188;61.302;2023-01-26T03:37:41;-7.79;67.97
74376;HTU21D;62812;55.188;61.302;2023-01-26T03:40:10;-7.78;67.94
74376;HTU21D;62812;55.188;61.302;2023-01-26T03:42:55;-7.75;67.61
74376;HTU21D;62812;55.188;61.302;2023-01-26T03:45:41;-7.67;67.34
74376;HTU21D;62812;55.188;61.302;2023-01-26T03:48:26;-7.63;67.21
74376;HTU21D;62812;55.188;61.302;2023-01-26T03:51:11;-7.60;67.15
74376;HTU21D;62812;55.188;61.302;2023-01-26T03:53:56;-7.63;67.31
74376;HTU21D;62812;55.188;61.302;2023-01-26T03:56:41;-7.69;67.39
74376;HTU21D;62812;55.188;61.302;2023-01-26T03:59:07;-7.69;67.76
74376;HTU21D;62812;55.188;61.302;2023-01-26T04:01:37;-7.68;67.64
74376;HTU21D;62812;55.188;61.302;2023-01-26T04:04:05;-7.70;67.63
74376;HTU21D;62812;55.188;61.302;2023-01-26T04:06:50;-7.66;67.59
74376;HTU21D;62812;55.188;61.302;2023-01-26T04:09:36;-7.61;67.61
74376;HTU21D;62812;55.188;61.302;2023-01-26T04:12:05;-7.53;67.54
74376;HTU21D;62812;55.188;61.302;2023-01-26T04:14:31;-7.52;67.21
74376;HTU21D;62812;55.188;61.302;2023-01-26T04:17:18;-7.48;67.23
74376;HTU21D;62812;55.188;61.302;2023-01-26T04:20:04;-7.45;66.95
74376;HTU21D;62812;55.188;61.302;2023-01-26T04:22:49;-7.40;67.23
74376;HTU21D;62812;55.188;61.302;2023-01-26T04:25:17;-7.30;66.82
74376;HTU21D;62812;55.188;61.302;2023-01-26T04:27:44;-7.25;66.53
74376;HTU21D;62812;55.188;61.302;2023-01-26T04:30:13;-7.17;66.54
74376;HTU21D;62812;55.188;61.302;2023-01-26T04:32:41;-7.05;65.93
74376;HTU21D;62812;55.188;61.302;2023-01-26T04:35:08;-6.98;65.37
74376;HTU21D;62812;55.188;61.302;2023-01-26T04:37:36;-6.89;65.42
74376;HTU21D;62812;55.188;61.302;2023-01-26T04:40:03;-6.79;65.31
74376;HTU21D;62812;55.188;61.302;2023-01-26T04:42:36;-6.79;65.31
74376;HTU21D;62812;55.188;61.302;2023-01-26T04:45:03;-6.67;65.24
74376;HTU21D;62812;55.188;61.302;2023-01-26T04:47:30;-6.51;64.98
74376;HTU21D;62812;55.188;61.302;2023-01-26T04:49:58;-6.44;64.32
74376;HTU21D;62812;55.188;61.302;2023-01-26T04:52:24;-6.38;64.17
74376;HTU21D;62812;55.188;61.302;2023-01-26T04:54:51;-6.23;63.93
74376;HTU21D;62812;55.188;61.302;2023-01-26T04:57:17;-6.14;63.40
74376;HTU21D;62812;55.188;61.302;2023-01-26T04:59:48;-6.15;63.53
74376;HTU21D;62812;55.188;61.302;2023-01-26T05:02:14;-6.05;63.11
74376;HTU21D;62812;55.188;61.302;2023-01-26T05:04:41;-5.97;63.11
74376;HTU21D;62812;55.188;61.302;2023-01-26T05:07:09;-5.97;62.90
74376;HTU21D;62812;55.188;61.302;2023-01-26T05:09:35;-5.91;63.21
74376;HTU21D;62812;55.188;61.302;2023-01-26T05:12:01;-5.90;63.17
74376;HTU21D;62812;55.188;61.302;2023-01-26T05:14:48;-5.81;62.99
74376;HTU21D;62812;55.188;61.302;2023-01-26T05:17:14;-5.75;62.79
74376;HTU21D;62812;55.188;61.302;2023-01-26T05:19:40;-5.65;62.34
74376;HTU21D;62812;55.188;61.302;2023-01-26T05:22:08;-5.56;62.03
74376;HTU21D;62812;55.188;61.302;2023-01-26T05:24:35;-5.44;61.68
74376;HTU21D;62812;55.188;61.302;2023-01-26T05:27:01;-5.49;61.72
74376;HTU21D;62812;55.188;61.302;2023-01-26T05:29:46;-5.47;62.09
74376;HTU21D;62812;55.188;61.302;2023-01-26T05:32:12;-5.43;62.25
74376;HTU21D;62812;55.188;61.302;2023-01-26T05:34:43;-5.26;61.63
74376;HTU21D;62812;55.188;61.302;2023-01-26T05:37:11;-5.23;61.58
74376;HTU21D;62812;55.188;61.302;2023-01-26T05:39:38;-5.02;61.27
74376;HTU21D;62812;55.188;61.302;2023-01-26T05:42:04;-4.85;60.93
74376;HTU21D;62812;55.188;61.302;2023-01-26T05:44:31;-4.70;60.12
74376;HTU21D;62812;55.188;61.302;2023-01-26T05:46:57;-4.63;59.90
74376;HTU21D;62812;55.188;61.302;2023-01-26T05:49:23;-4.61;60.07
74376;HTU21D;62812;55.188;61.302;2023-01-26T05:51:50;-4.57;59.51
74376;HTU21D;62812;55.188;61.302;2023-01-26T05:54:18;-4.53;59.57
74376;HTU21D;62812;55.188;61.302;2023-01-26T05:56:44;-4.55;59.73
74376;HTU21D;62812;55.188;61.302;2023-01-26T05:59:11;-4.53;59.49
74376;HTU21D;62812;55.188;61.302;2023-01-26T06:01:37;-4.23;59.39
74376;HTU21D;62812;55.188;61.302;2023-01-26T06:04:04;-4.30;58.48
74376;HTU21D;62812;55.188;61.302;2023-01-26T06:06:30;-4.22;58.03
74376;HTU21D;62812;55.188;61.302;2023-01-26T06:08:57;-4.16;58.04
74376;HTU21D;62812;55.188;61.302;2023-01-26T06:11:25;-4.17;58.10
74376;HTU21D;62812;55.188;61.302;2023-01-26T06:13:51;-4.28;58.70
74376;HTU21D;62812;55.188;61.302;2023-01-26T06:16:18;-4.29;58.69
74376;HTU21D;62812;55.188;61.302;2023-01-26T06:18:46;-4.38;58.71
74376;HTU21D;62812;55.188;61.302;2023-01-26T06:21:13;-4.41;59.33
74376;HTU21D;62812;55.188;61.302;2023-01-26T06:23:40;-4.20;58.57
74376;HTU21D;62812;55.188;61.302;2023-01-26T06:26:07;-4.19;58.29
74376;HTU21D;62812;55.188;61.302;2023-01-26T06:28:34;-4.02;58.22
74376;HTU21D;62812;55.188;61.302;2023-01-26T06:31:02;-3.96;57.63
74376;HTU21D;62812;55.188;61.302;2023-01-26T06:33:30;-4.01;57.91
74376;HTU21D;62812;55.188;61.302;2023-01-26T06:36:00;-4.07;57.89
74376;HTU21D;62812;55.188;61.302;2023-01-26T06:38:27;-3.84;57.72
74376;HTU21D;62812;55.188;61.302;2023-01-26T06:40:53;-3.89;57.65
74376;HTU21D;62812;55.188;61.302;2023-01-26T06:43:19;-3.58;56.75
74376;HTU21D;62812;55.188;61.302;2023-01-26T06:45:47;-3.28;56.32
74376;HTU21D;62812;55.188;61.302;2023-01-26T06:48:14;-3.30;56.23
74376;HTU21D;62812;55.188;61.302;2023-01-26T06:50:43;-3.25;56.35
74376;HTU21D;62812;55.188;61.302;2023-01-26T06:53:25;-3.36;56.51
74376;HTU21D;62812;55.188;61.302;2023-01-26T06:55:51;-3.32;56.61
74376;HTU21D;62812;55.188;61.302;2023-01-26T06:58:18;-3.28;56.93
74376;HTU21D;62812;55.188;61.302;2023-01-26T07:00:44;-3.28;56.75
74376;HTU21D;62812;55.188;61.302;2023-01-26T07:03:12;-3.36;56.76
74376;HTU21D;62812;55.188;61.302;2023-01-26T07:05:39;-3.30;56.66
74376;HTU21D;62812;55.188;61.302;2023-01-26T07:08:06;-3.33;56.73
74376;HTU21D;62812;55.188;61.302;2023-01-26T07:10:34;-3.31;56.75
74376;HTU21D;62812;55.188;61.302;2023-01-26T07:13:02;-3.27;56.68
74376;HTU21D;62812;55.188;61.302;2023-01-26T07:15:29;-3.32;56.68
74376;HTU21D;62812;55.188;61.302;2023-01-26T07:17:56;-3.26;57.08
74376;HTU21D;62812;55.188;61.302;2023-01-26T07:20:24;-3.21;56.84
74376;HTU21D;62812;55.188;61.302;2023-01-26T07:22:51;-3.16;56.74
74376;HTU21D;62812;55.188;61.302;2023-01-26T07:25:18;-3.19;56.39
74376;HTU21D;62812;55.188;61.302;2023-01-26T07:27:44;-3.23;57.13
74376;HTU21D;62812;55.188;61.302;2023-01-26T07:30:12;-3.26;57.25
74376;HTU21D;62812;55.188;61.302;2023-01-26T07:32:41;-3.18;56.90
74376;HTU21D;62812;55.188;61.302;2023-01-26T07:35:08;-3.13;56.65
74376;HTU21D;62812;55.188;61.302;2023-01-26T07:37:35;-2.87;56.68
74376;HTU21D;62812;55.188;61.302;2023-01-26T07:40:02;-2.73;56.21
74376;HTU21D;62812;55.188;61.302;2023-01-26T07:42:28;-2.48;55.75
74376;HTU21D;62812;55.188;61.302;2023-01-26T07:44:56;-2.17;55.32
74376;HTU21D;62812;55.188;61.302;2023-01-26T07:47:22;-2.18;55.92
74376;HTU21D;62812;55.188;61.302;2023-01-26T07:49:48;-2.18;55.61
74376;HTU21D;62812;55.188;61.302;2023-01-26T07:52:18;-2.03;56.38
74376;HTU21D;62812;55.188;61.302;2023-01-26T07:54:45;-1.86;55.26
74376;HTU21D;62812;55.188;61.302;2023-01-26T07:57:12;-1.90;55.51
74376;HTU21D;62812;55.188;61.302;2023-01-26T07:59:38;-1.61;54.80
74376;HTU21D;62812;55.188;61.302;2023-01-26T08:02:05;-1.31;53.81
74376;HTU21D;62812;55.188;61.302;2023-01-26T08:04:31;-1.14;53.84
74376;HTU21D;62812;55.188;61.302;2023-01-26T08:06:58;-1.05;52.84
74376;HTU21D;62812;55.188;61.302;2023-01-26T08:09:24;-0.99;52.24
74376;HTU21D;62812;55.188;61.302;2023-01-26T08:11:55;-0.76;52.27
74376;HTU21D;62812;55.188;61.302;2023-01-26T08:14:22;-0.67;52.92
74376;HTU21D;62812;55.188;61.302;2023-01-26T08:16:49;-0.64;51.56
74376;HTU21D;62812;55.188;61.302;2023-01-26T08:19:15;-0.75;51.98
74376;HTU21D;62812;55.188;61.302;2023-01-26T08:21:41;-0.72;52.42
74376;HTU21D;62812;55.188;61.302;2023-01-26T08:24:10;-0.56;52.86
74376;HTU21D;62812;55.188;61.302;2023-01-26T08:26:36;-0.42;52.29
74376;HTU21D;62812;55.188;61.302;2023-01-26T08:29:04;-0.35;52.11
74376;HTU21D;62812;55.188;61.302;2023-01-26T08:31:31;-0.23;50.60
74376;HTU21D;62812;55.188;61.302;2023-01-26T08:33:58;-0.05;50.89
74376;HTU21D;62812;55.188;61.302;2023-01-26T08:36:24;0.16;49.35
74376;HTU21D;62812;55.188;61.302;2023-01-26T08:38:51;0.20;48.90
74376;HTU21D;62812;55.188;61.302;2023-01-26T08:41:18;0.36;49.22
74376;HTU21D;62812;55.188;61.302;2023-01-26T08:43:45;0.36;48.37
74376;HTU21D;62812;55.188;61.302;2023-01-26T08:46:13;0.37;48.37
74376;HTU21D;62812;55.188;61.302;2023-01-26T08:48:39;0.37;47.85
74376;HTU21D;62812;55.188;61.302;2023-01-26T08:51:07;0.13;47.85
74376;HTU21D;62812;55.188;61.302;2023-01-26T08:53:35;-0.09;49.80
74376;HTU21D;62812;55.188;61.302;2023-01-26T08:56:03;-0.07;50.02
74376;HTU21D;62812;55.188;61.302;2023-01-26T08:58:31;0.06;49.60
74376;HTU21D;62812;55.188;61.302;2023-01-26T09:01:01;0.27;48.95
74376;HTU21D;62812;55.188;61.302;2023-01-26T09:03:29;0.22;49.15
74376;HTU21D;62812;55.188;61.302;2023-01-26T09:05:58;-0.03;49.05
74376;HTU21D;62812;55.188;61.302;2023-01-26T09:08:25;-0.22;49.98
74376;HTU21D;62812;55.188;61.302;2023-01-26T09:10:51;-0.28;50.95
74376;HTU21D;62812;55.188;61.302;2023-01-26T09:13:18;-0.30;50.91
74376;HTU21D;62812;55.188;61.302;2023-01-26T09:15:44;-0.42;50.07
74376;HTU21D;62812;55.188;61.302;2023-01-26T09:18:12;-0.54;50.18
74376;HTU21D;62812;55.188;61.302;2023-01-26T09:20:40;-0.68;51.06
74376;HTU21D;62812;55.188;61.302;2023-01-26T09:23:07;-0.70;50.56
74376;HTU21D;62812;55.188;61.302;2023-01-26T09:25:35;-0.67;51.52
74376;HTU21D;62812;55.188;61.302;2023-01-26T09:28:03;-0.65;50.24
74376;HTU21D;62812;55.188;61.302;2023-01-26T09:30:30;-0.58;49.30
74376;HTU21D;62812;55.188;61.302;2023-01-26T09:32:57;-0.66;50.43
74376;HTU21D;62812;55.188;61.302;2023-01-26T09:35:24;-0.52;50.19
74376;HTU21D;62812;55.188;61.302;2023-01-26T09:37:52;-0.51;49.46
74376;HTU21D;62812;55.188;61.302;2023-01-26T09:40:25;-0.56;48.18
74376;HTU21D;62812;55.188;61.302;2023-01-26T09:43:03;-0.85;49.74
74376;HTU21D;62812;55.188;61.302;2023-01-26T09:45:37;-1.03;50.38
74376;HTU21D;62812;55.188;61.302;2023-01-26T09:48:15;-1.14;51.01
74376;HTU21D;62812;55.188;61.302;2023-01-26T09:50:50;-1.28;50.85
74376;HTU21D;62812;55.188;61.302;2023-01-26T09:53:24;-1.20;50.78
74376;HTU21D;62812;55.188;61.302;2023-01-26T09:55:53;-1.35;50.19
74376;HTU21D;62812;55.188;61.302;2023-01-26T09:58:27;-1.46;50.80
74376;HTU21D;62812;55.188;61.302;2023-01-26T10:00:59;-1.45;51.19
74376;HTU21D;62812;55.188;61.302;2023-01-26T10:03:31;-1.57;52.23
74376;HTU21D;62812;55.188;61.302;2023-01-26T10:06:02;-1.54;51.97
74376;HTU21D;62812;55.188;61.302;2023-01-26T10:08:33;-1.45;52.84
74376;HTU21D;62812;55.188;61.302;2023-01-26T10:11:04;-1.54;50.85
74376;HTU21D;62812;55.188;61.302;2023-01-26T10:13:33;-1.46;52.53
74376;HTU21D;62812;55.188;61.302;2023-01-26T10:16:02;-1.49;51.23
74376;HTU21D;62812;55.188;61.302;2023-01-26T10:18:33;-1.48;53.04
74376;HTU21D;62812;55.188;61.302;2023-01-26T10:21:02;-1.31;52.07
74376;HTU21D;62812;55.188;61.302;2023-01-26T10:23:30;-1.43;51.05
74376;HTU21D;62812;55.188;61.302;2023-01-26T10:26:09;-1.48;53.53
74376;HTU21D;62812;55.188;61.302;2023-01-26T10:28:37;-1.34;52.25
74376;HTU21D;62812;55.188;61.302;2023-01-26T10:31:11;-1.29;51.53
74376;HTU21D;62812;55.188;61.302;2023-01-26T10:33:44;-1.36;50.78
74376;HTU21D;62812;55.188;61.302;2023-01-26T10:36:13;-1.46;52.50
74376;HTU21D;62812;55.188;61.302;2023-01-26T10:38:41;-1.60;51.70
74376;HTU21D;62812;55.188;61.302;2023-01-26T10:41:24;-1.57;52.30
74376;HTU21D;62812;55.188;61.302;2023-01-26T10:43:56;-1.58;51.66
74376;HTU21D;62812;55.188;61.302;2023-01-26T10:46:28;-1.61;51.33
74376;HTU21D;62812;55.188;61.302;2023-01-26T10:48:57;-1.63;51.97
74376;HTU21D;62812;55.188;61.302;2023-01-26T10:51:27;-1.65;52.03
74376;HTU21D;62812;55.188;61.302;2023-01-26T10:54:21;-1.76;51.85
74376;HTU21D;62812;55.188;61.302;2023-01-26T10:56:51;-1.72;51.70
74376;HTU21D;62812;55.188;61.302;2023-01-26T10:59:31;-1.74;51.75
74376;HTU21D;62812;55.188;61.302;2023-01-26T11:02:07;-1.62;53.06
74376;HTU21D;62812;55.188;61.302;2023-01-26T11:05:02;-1.68;51.50
74376;HTU21D;62812;55.188;61.302;2023-01-26T11:07:32;-1.77;51.43
74376;HTU21D;62812;55.188;61.302;2023-01-26T11:10:22;-1.65;51.96
74376;HTU21D;62812;55.188;61.302;2023-01-26T11:13:14;-1.69;51.18
74376;HTU21D;62812;55.188;61.302;2023-01-26T11:15:45;-1.72;51.68
74376;HTU21D;62812;55.188;61.302;2023-01-26T11:18:21;-1.76;51.72
74376;HTU21D;62812;55.188;61.302;2023-01-26T11:20:55;-1.85;52.00
74376;HTU21D;62812;55.188;61.302;2023-01-26T11:23:32;-1.83;52.65
74376;HTU21D;62812;55.188;61.302;2023-01-26T11:26:29;-1.92;51.67
74376;HTU21D;62812;55.188;61.302;2023-01-26T11:29:11;-2.01;51.59
74376;HTU21D;62812;55.188;61.302;2023-01-26T11:31:51;-2.05;52.24
74376;HTU21D;62812;55.188;61.302;2023-01-26T11:34:28;-2.14;52.40
74376;HTU21D;62812;55.188;61.302;2023-01-26T11:37:08;-2.06;52.36
74376;HTU21D;62812;55.188;61.302;2023-01-26T11:39:46;-2.03;52.45
74376;HTU21D;62812;55.188;61.302;2023-01-26T11:42:21;-2.07;52.79
74376;HTU21D;62812;55.188;61.302;2023-01-26T11:45:00;-2.12;52.72
74376;HTU21D;62812;55.188;61.302;2023-01-26T11:47:43;-2.05;52.98
74376;HTU21D;62812;55.188;61.302;2023-01-26T11:50:21;-2.19;52.26
74376;HTU21D;62812;55.188;61.302;2023-01-26T11:53:01;-2.35;52.36
74376;HTU21D;62812;55.188;61.302;2023-01-26T11:55:41;-2.46;53.14
74376;HTU21D;62812;55.188;61.302;2023-01-26T11:58:21;-2.51;53.24
74376;HTU21D;62812;55.188;61.302;2023-01-26T12:00:55;-2.63;53.56
74376;HTU21D;62812;55.188;61.302;2023-01-26T12:03:26;-2.66;53.61
74376;HTU21D;62812;55.188;61.302;2023-01-26T12:05:59;-2.63;53.65
74376;HTU21D;62812;55.188;61.302;2023-01-26T12:08:33;-2.66;54.23
74376;HTU21D;62812;55.188;61.302;2023-01-26T12:11:07;-2.68;53.72
74376;HTU21D;62812;55.188;61.302;2023-01-26T12:14:02;-2.73;53.83
74376;HTU21D;62812;55.188;61.302;2023-01-26T12:16:43;-2.76;54.21
74376;HTU21D;62812;55.188;61.302;2023-01-26T12:19:16;-2.78;54.20
74376;HTU21D;62812;55.188;61.302;2023-01-26T12:21:46;-2.90;54.27
74376;HTU21D;62812;55.188;61.302;2023-01-26T12:24:18;-2.87;54.90
74376;HTU21D;62812;55.188;61.302;2023-01-26T12:26:48;-2.82;55.35
74376;HTU21D;62812;55.188;61.302;2023-01-26T12:29:19;-2.89;54.29
74376;HTU21D;62812;55.188;61.302;2023-01-26T12:31:53;-2.86;54.50
74376;HTU21D;62812;55.188;61.302;2023-01-26T12:34:25;-2.84;54.17
74376;HTU21D;62812;55.188;61.302;2023-01-26T12:37:01;-2.91;54.30
74376;HTU21D;62812;55.188;61.302;2023-01-26T12:39:32;-3.01;54.29
74376;HTU21D;62812;55.188;61.302;2023-01-26T12:42:02;-3.08;54.27
74376;HTU21D;62812;55.188;61.302;2023-01-26T12:44:35;-3.23;54.71
74376;HTU21D;62812;55.188;61.302;2023-01-26T12:47:10;-3.24;54.78
74376;HTU21D;62812;55.188;61.302;2023-01-26T12:49:44;-3.31;54.78
74376;HTU21D;62812;55.188;61.302;2023-01-26T12:52:17;-3.31;54.93
74376;HTU21D;62812;55.188;61.302;2023-01-26T12:54:49;-3.38;55.32
74376;HTU21D;62812;55.188;61.302;2023-01-26T12:57:23;-3.37;55.75
74376;HTU21D;62812;55.188;61.302;2023-01-26T12:59:51;-3.34;55.21
74376;HTU21D;62812;55.188;61.302;2023-01-26T13:02:26;-3.36;55.45
74376;HTU21D;62812;55.188;61.302;2023-01-26T13:04:53;-3.32;55.52
74376;HTU21D;62812;55.188;61.302;2023-01-26T13:07:35;-3.37;55.33
74376;HTU21D;62812;55.188;61.302;2023-01-26T13:10:26;-3.45;55.98
74376;HTU21D;62812;55.188;61.302;2023-01-26T13:12:56;-3.42;55.79
74376;HTU21D;62812;55.188;61.302;2023-01-26T13:15:23;-3.48;56.26
74376;HTU21D;62812;55.188;61.302;2023-01-26T13:17:57;-3.50;56.36
74376;HTU21D;62812;55.188;61.302;2023-01-26T13:20:53;-3.50;55.95
74376;HTU21D;62812;55.188;61.302;2023-01-26T13:23:40;-3.50;56.10
74376;HTU21D;62812;55.188;61.302;2023-01-26T13:29:32;-3.66;55.94
74376;HTU21D;62812;55.188;61.302;2023-01-26T13:34:50;-3.74;56.22
74376;HTU21D;62812;55.188;61.302;2023-01-26T13:37:33;-3.76;56.17
74376;HTU21D;62812;55.188;61.302;2023-01-26T13:40:05;-3.68;56.69
74376;HTU21D;62812;55.188;61.302;2023-01-26T13:42:54;-3.64;56.03
74376;HTU21D;62812;55.188;61.302;2023-01-26T13:45:28;-3.51;55.45
74376;HTU21D;62812;55.188;61.302;2023-01-26T13:47:57;-3.51;55.45
74376;HTU21D;62812;55.188;61.302;2023-01-26T13:50:30;-3.51;55.20
74376;HTU21D;62812;55.188;61.302;2023-01-26T13:52:59;-3.60;55.57
74376;HTU21D;62812;55.188;61.302;2023-01-26T13:55:32;-3.64;55.74
74376;HTU21D;62812;55.188;61.302;2023-01-26T13:58:15;-3.56;55.81
74376;HTU21D;62812;55.188;61.302;2023-01-26T14:00:42;-3.52;55.18
74376;HTU21D;62812;55.188;61.302;2023-01-26T14:03:22;-3.53;55.19
74376;HTU21D;62812;55.188;61.302;2023-01-26T14:05:55;-3.52;55.56
74376;HTU21D;62812;55.188;61.302;2023-01-26T14:08:23;-3.41;55.10
74376;HTU21D;62812;55.188;61.302;2023-01-26T14:10:50;-3.34;54.90
74376;HTU21D;62812;55.188;61.302;2023-01-26T14:13:21;-3.35;54.47
74376;HTU21D;62812;55.188;61.302;2023-01-26T14:15:55;-3.35;54.36
74376;HTU21D;62812;55.188;61.302;2023-01-26T14:18:23;-3.41;54.24
74376;HTU21D;62812;55.188;61.302;2023-01-26T14:20:49;-3.49;54.55
74376;HTU21D;62812;55.188;61.302;2023-01-26T14:23:27;-3.58;54.68
74376;HTU21D;62812;55.188;61.302;2023-01-26T14:26:01;-3.66;55.04
74376;HTU21D;62812;55.188;61.302;2023-01-26T14:28:30;-3.68;55.34
74376;HTU21D;62812;55.188;61.302;2023-01-26T14:31:05;-3.68;55.61
74376;HTU21D;62812;55.188;61.302;2023-01-26T14:33:36;-3.63;55.43
74376;HTU21D;62812;55.188;61.302;2023-01-26T14:36:11;-3.63;55.19
74376;HTU21D;62812;55.188;61.302;2023-01-26T14:38:42;-3.62;55.16
74376;HTU21D;62812;55.188;61.302;2023-01-26T14:41:14;-3.58;55.16
74376;HTU21D;62812;55.188;61.302;2023-01-26T14:43:41;-3.65;55.03
74376;HTU21D;62812;55.188;61.302;2023-01-26T14:46:13;-3.74;55.28
74376;HTU21D;62812;55.188;61.302;2023-01-26T14:48:44;-3.79;55.74
74376;HTU21D;62812;55.188;61.302;2023-01-26T14:51:17;-3.74;56.20
74376;HTU21D;62812;55.188;61.302;2023-01-26T14:53:54;-3.68;55.62
74376;HTU21D;62812;55.188;61.302;2023-01-26T14:56:28;-3.62;55.87
74376;HTU21D;62812;55.188;61.302;2023-01-26T14:58:56;-3.58;55.60
74376;HTU21D;62812;55.188;61.302;2023-01-26T15:01:25;-3.57;55.83
74376;HTU21D;62812;55.188;61.302;2023-01-26T15:04:00;-3.58;55.64
74376;HTU21D;62812;55.188;61.302;2023-01-26T15:06:29;-3.51;55.22
74376;HTU21D;62812;55.188;61.302;2023-01-26T15:08:59;-3.46;55.34
74376;HTU21D;62812;55.188;61.302;2023-01-26T15:11:29;-3.45;55.06
74376;HTU21D;62812;55.188;61.302;2023-01-26T15:14:31;-3.53;54.78
74376;HTU21D;62812;55.188;61.302;2023-01-26T15:16:58;-3.60;55.00
74376;HTU21D;62812;55.188;61.302;2023-01-26T15:19:37;-3.64;55.03
74376;HTU21D;62812;55.188;61.302;2023-01-26T15:22:05;-3.67;55.61
74376;HTU21D;62812;55.188;61.302;2023-01-26T15:24:41;-3.69;55.14
74376;HTU21D;62812;55.188;61.302;2023-01-26T15:27:11;-3.70;55.49
74376;HTU21D;62812;55.188;61.302;2023-01-26T15:29:40;-3.67;55.45
74376;HTU21D;62812;55.188;61.302;2023-01-26T15:32:28;-3.67;55.33
74376;HTU21D;62812;55.188;61.302;2023-01-26T15:35:13;-3.64;55.58